createdAt,value
2023-05-10T00:03:20.348Z,99782.38
2023-05-10T00:08:19.179Z,99779.66
2023-05-10T00:13:17.944Z,99779.44
2023-05-10T00:18:16.735Z,99765.31
2023-05-10T00:23:15.794Z,99763.16
2023-05-10T00:28:14.724Z,99770.75
2023-05-10T00:33:13.616Z,99766.97
2023-05-10T00:38:12.430Z,99764.81
2023-05-10T00:43:11.283Z,99759.63
2023-05-10T00:48:10.370Z,99755.56
2023-05-10T00:53:10.286Z,99753.41
2023-05-10T00:58:10.176Z,99758.81
2023-05-10T01:03:09.101Z,99747.94
2023-05-10T01:08:09.841Z,99752.56
2023-05-10T01:13:08.899Z,99749.03
2023-05-10T01:18:09.763Z,99745.78
2023-05-10T01:23:47.546Z,99740.06
2023-05-10T01:29:00.549Z,99739.00
2023-05-10T01:34:07.351Z,99744.44
2023-05-10T01:39:39.323Z,99737.38
2023-05-10T01:44:47.590Z,99730.59
2023-05-10T01:49:53.071Z,99730.59
2023-05-10T01:55:04.068Z,99736.81
2023-05-10T02:00:05.688Z,99733.81
2023-05-10T02:05:15.448Z,99724.28
2023-05-10T02:10:15.733Z,99726.22
2023-05-10T02:15:20.228Z,99719.66
2023-05-10T02:20:20.407Z,99728.38
2023-05-10T02:25:23.146Z,99720.72
2023-05-10T02:30:24.027Z,99720.72
2023-05-10T02:35:24.180Z,99713.66
2023-05-10T02:40:26.175Z,99722.06
2023-05-10T02:45:31.534Z,99714.44
2023-05-10T02:50:33.547Z,99715.44
2023-05-10T02:55:39.007Z,99710.53
2023-05-10T03:00:38.048Z,99711.38
2023-05-10T03:05:36.857Z,99717.28
2023-05-10T03:11:18.701Z,99715.63
2023-05-10T03:16:28.372Z,99716.78
2023-05-10T03:21:31.035Z,99712.94
2023-05-10T03:26:30.901Z,99714.00
2023-05-10T03:31:41.992Z,99715.94
2023-05-10T03:36:41.100Z,99720.97
2023-05-10T03:41:39.973Z,99710.78
2023-05-10T03:46:38.823Z,99713.19
2023-05-10T03:51:37.799Z,99706.94
2023-05-10T03:56:36.953Z,99717.22
2023-05-10T04:01:36.449Z,99715.13
2023-05-10T04:06:36.351Z,99727.28
2023-05-10T04:11:35.277Z,99723.25
2023-05-10T04:16:34.059Z,99717.91
2023-05-10T04:21:32.914Z,99712.97
2023-05-10T04:26:32.410Z,99712.63
2023-05-10T04:31:31.306Z,99721.25
2023-05-10T04:36:30.420Z,99724.03
2023-05-10T04:41:29.633Z,99718.59
2023-05-10T04:46:28.532Z,99711.41
2023-05-10T04:51:27.396Z,99701.41
2023-05-10T04:56:28.059Z,99706.81
2023-05-10T05:01:26.983Z,99706.25
2023-05-10T05:06:26.281Z,99714.50
2023-05-10T05:11:26.570Z,99704.47
2023-05-10T05:16:25.729Z,99701.69
2023-05-10T05:21:25.037Z,99701.44
2023-05-10T05:26:24.016Z,99707.88
2023-05-10T05:31:23.192Z,99699.94
2023-05-10T05:36:22.344Z,99689.31
2023-05-10T05:41:22.523Z,99695.75
2023-05-10T05:46:21.347Z,99692.13
2023-05-10T05:51:20.191Z,99691.22
2023-05-10T05:56:25.089Z,99699.31
2023-05-10T06:01:23.900Z,99694.31
2023-05-10T06:06:22.936Z,99696.69
2023-05-10T06:11:24.943Z,99698.69
2023-05-10T06:16:23.787Z,99700.38
2023-05-10T06:21:22.623Z,99709.53
2023-05-10T06:26:21.942Z,99721.91
2023-05-10T06:31:20.673Z,99718.44
2023-05-10T06:36:19.621Z,99718.00
2023-05-10T06:41:18.509Z,99716.16
2023-05-10T06:46:17.336Z,99721.13
2023-05-10T06:51:16.400Z,99721.03
2023-05-10T06:56:15.281Z,99726.66
2023-05-10T07:01:14.146Z,99735.44
2023-05-10T07:06:21.596Z,99734.56
2023-05-10T07:11:24.765Z,99733.59
2023-05-10T07:16:23.809Z,99733.03
2023-05-10T07:21:27.374Z,99726.34
2023-05-10T07:26:26.317Z,99727.16
2023-05-10T07:31:25.091Z,99736.19
2023-05-10T07:36:24.021Z,99731.06
2023-05-10T07:41:23.625Z,99734.69
2023-05-10T07:46:22.613Z,99733.41
2023-05-10T07:51:21.403Z,99726.13
2023-05-10T07:56:23.760Z,99729.06
2023-05-10T08:01:23.653Z,99721.97
2023-05-10T08:06:22.561Z,99713.91
2023-05-10T08:11:23.716Z,99714.97
2023-05-10T08:16:25.817Z,99721.06
2023-05-10T08:21:24.875Z,99721.25
2023-05-10T08:26:23.730Z,99726.03
2023-05-10T08:31:22.628Z,99728.31
2023-05-10T08:36:22.961Z,99727.38
2023-05-10T08:41:22.664Z,99730.53
2023-05-10T08:46:23.454Z,99739.59
2023-05-10T08:51:30.926Z,99749.63
2023-05-10T08:56:30.762Z,99754.00
2023-05-10T09:01:31.833Z,99760.41
2023-05-10T09:06:30.928Z,99766.50
2023-05-10T09:11:31.004Z,99769.03
2023-05-10T09:16:29.979Z,99765.47
2023-05-10T09:21:28.836Z,99772.28
2023-05-10T09:26:27.811Z,99768.16
2023-05-10T09:31:57.323Z,99763.50
2023-05-10T09:36:58.633Z,99774.50
2023-05-10T09:41:58.697Z,99772.91
2023-05-10T09:46:58.100Z,99773.09
2023-05-10T09:52:08.316Z,99775.03
2023-05-10T09:57:19.460Z,99773.41
2023-05-10T10:02:18.734Z,99780.09
2023-05-10T10:07:24.491Z,99778.47
2023-05-10T10:12:23.330Z,99769.25
2023-05-10T10:17:22.790Z,99762.94
2023-05-10T10:22:21.611Z,99764.81
2023-05-10T10:27:20.405Z,99762.13
2023-05-10T10:32:54.391Z,99761.78
2023-05-10T10:37:53.324Z,99772.03
2023-05-10T10:42:53.062Z,99775.72
2023-05-10T10:48:21.236Z,99777.84
2023-05-10T10:53:20.162Z,99773.94
2023-05-10T10:58:52.209Z,99774.91
2023-05-10T11:04:00.104Z,99779.59
2023-05-10T11:08:59.458Z,99769.59
2023-05-10T11:14:05.574Z,99771.47
2023-05-10T11:19:08.724Z,99780.03
2023-05-10T11:24:14.920Z,99782.31
2023-05-10T11:29:14.756Z,99770.81
2023-05-10T11:34:25.406Z,99785.00
2023-05-10T11:39:29.148Z,99782.44
2023-05-10T11:44:32.647Z,99784.50
2023-05-10T11:49:31.559Z,99791.06
2023-05-10T11:54:30.339Z,99775.53
2023-05-10T11:59:29.113Z,99789.16
2023-05-10T12:04:30.560Z,99787.44
2023-05-10T12:09:42.653Z,99785.63
2023-05-10T12:14:42.663Z,99779.72
2023-05-10T12:19:42.550Z,99785.88
2023-05-10T12:24:41.594Z,99799.00
2023-05-10T12:29:45.592Z,99794.66
2023-05-10T12:34:47.862Z,99793.06
2023-05-10T12:39:47.299Z,99792.78
2023-05-10T12:44:46.164Z,99797.22
2023-05-10T12:49:45.005Z,99791.56
2023-05-10T12:54:43.764Z,99801.13
2023-05-10T12:59:42.609Z,99799.31
2023-05-10T13:04:42.868Z,99798.69
2023-05-10T13:09:44.525Z,99801.91
2023-05-10T13:14:49.350Z,99794.44
2023-05-10T13:19:48.253Z,99790.69
2023-05-10T13:24:47.145Z,99799.25
2023-05-10T13:29:47.070Z,99799.56
2023-05-10T13:34:47.541Z,99797.56
2023-05-10T13:39:46.354Z,99789.97
2023-05-10T13:44:45.554Z,99785.09
2023-05-10T13:49:44.583Z,99774.41
2023-05-10T13:54:43.470Z,99787.53
2023-05-10T13:59:42.543Z,99780.25
2023-05-10T14:04:46.253Z,99780.53
2023-05-10T14:09:45.403Z,99781.72
2023-05-10T14:14:44.497Z,99780.38
2023-05-10T14:19:43.441Z,99776.81
2023-05-10T14:24:42.347Z,99772.78
2023-05-10T14:29:41.097Z,99772.28
2023-05-10T14:34:40.206Z,99771.16
2023-05-10T14:39:39.295Z,99774.72
2023-05-10T14:44:38.332Z,99775.09
2023-05-10T14:49:37.288Z,99776.59
2023-05-10T14:54:36.321Z,99776.19
2023-05-10T14:59:35.414Z,99777.47
2023-05-10T15:04:34.766Z,99778.28
2023-05-10T15:09:34.263Z,99773.38
2023-05-10T15:14:33.959Z,99778.88
2023-05-10T15:19:34.322Z,99780.72
2023-05-10T15:24:33.108Z,99784.91
2023-05-10T15:29:32.519Z,99796.25
2023-05-10T15:34:33.184Z,99804.63
2023-05-10T15:39:33.383Z,99796.00
2023-05-10T15:44:32.132Z,99804.31
2023-05-10T15:49:31.147Z,99801.56
2023-05-10T15:54:30.176Z,99804.47
2023-05-10T15:59:29.419Z,99810.94
2023-05-10T16:04:28.327Z,99811.28
2023-05-10T16:09:27.179Z,99817.53
2023-05-10T16:14:26.196Z,99815.97
2023-05-10T16:19:25.479Z,99820.59
2023-05-10T16:24:26.178Z,99815.66
2023-05-10T16:29:25.320Z,99823.78
2023-05-10T16:34:25.444Z,99831.06
2023-05-10T16:39:24.511Z,99828.97
2023-05-10T16:44:25.686Z,99844.22
2023-05-10T16:49:26.216Z,99837.75
2023-05-10T16:54:26.085Z,99852.38
2023-05-10T16:59:24.889Z,99853.78
2023-05-10T17:04:23.878Z,99854.38
2023-05-10T17:09:22.680Z,99859.94
2023-05-10T17:14:21.739Z,99865.81
2023-05-10T17:19:20.798Z,99868.78
2023-05-10T17:24:19.559Z,99871.13
2023-05-10T17:29:18.324Z,99871.66
2023-05-10T17:34:17.385Z,99888.38
2023-05-10T17:39:16.164Z,99886.38
2023-05-10T17:44:15.786Z,99890.22
2023-05-10T17:49:15.338Z,99892.25
2023-05-10T17:54:14.950Z,99895.31
2023-05-10T17:59:13.823Z,99905.38
2023-05-10T18:04:12.704Z,99896.03
2023-05-10T18:09:11.835Z,99907.63
2023-05-10T18:14:10.807Z,99911.78
2023-05-10T18:19:10.153Z,99915.00
2023-05-10T18:24:09.272Z,99917.34
2023-05-10T18:29:08.502Z,99921.59
2023-05-10T18:34:07.464Z,99924.72
2023-05-10T18:39:06.270Z,99928.56
2023-05-10T18:44:05.178Z,99923.44
2023-05-10T18:49:04.014Z,99932.97
2023-05-10T18:54:02.902Z,99944.13
2023-05-10T18:59:01.683Z,99944.94
2023-05-10T19:04:00.673Z,99951.16
2023-05-10T19:09:00.004Z,99953.28
2023-05-10T19:13:58.829Z,99958.09
2023-05-10T19:18:58.038Z,99967.03
2023-05-10T19:23:57.856Z,99971.59
2023-05-10T19:28:57.677Z,99975.69
2023-05-10T19:33:59.950Z,99975.53
2023-05-10T19:38:59.741Z,99981.44
2023-05-10T19:43:59.102Z,99975.31
2023-05-10T19:49:02.078Z,99976.88
2023-05-10T19:54:01.194Z,99981.44
2023-05-10T19:59:00.184Z,99978.63
2023-05-10T20:03:59.042Z,99978.13
2023-05-10T20:08:57.835Z,99979.78
2023-05-10T20:13:57.054Z,99987.53
2023-05-10T20:18:55.983Z,99984.31
2023-05-10T20:23:54.807Z,99990.38
2023-05-10T20:28:53.587Z,99992.09
2023-05-10T20:33:52.387Z,99991.50
2023-05-10T20:38:51.161Z,99984.78
2023-05-10T20:43:49.963Z,99992.63
2023-05-10T20:48:48.897Z,99984.94
2023-05-10T20:53:47.660Z,99990.47
2023-05-10T20:58:46.437Z,99989.94
2023-05-10T21:03:45.400Z,99991.28
2023-05-10T21:08:44.290Z,99994.00
2023-05-10T21:13:43.022Z,99988.00
2023-05-10T21:18:41.865Z,99998.38
2023-05-10T21:23:42.303Z,99995.41
2023-05-10T21:28:42.410Z,99998.94
2023-05-10T21:33:41.366Z,99993.22
2023-05-10T21:38:40.980Z,100002.63
2023-05-10T21:43:39.799Z,100002.34
2023-05-10T21:48:38.748Z,100007.88
2023-05-10T21:53:39.091Z,100005.06
2023-05-10T21:58:38.144Z,100013.16
2023-05-10T22:03:36.933Z,100005.53
2023-05-10T22:08:35.700Z,100016.69
2023-05-10T22:13:34.420Z,100017.78
2023-05-10T22:18:33.394Z,100018.75
2023-05-10T22:23:32.192Z,100023.16
2023-05-10T22:28:30.984Z,100018.78
2023-05-10T22:33:30.897Z,100019.41
2023-05-10T22:38:29.748Z,100020.84
2023-05-10T22:43:28.475Z,100021.75
2023-05-10T22:48:28.829Z,100031.03
2023-05-10T22:53:27.684Z,100017.94
2023-05-10T22:58:26.721Z,100024.19
2023-05-10T23:03:25.931Z,100017.91
2023-05-10T23:08:24.725Z,100033.53
2023-05-10T23:13:24.625Z,100026.81
2023-05-10T23:18:23.497Z,100023.91
2023-05-10T23:23:22.796Z,100027.72
2023-05-10T23:28:21.692Z,100027.81
2023-05-10T23:33:20.391Z,100035.44
2023-05-10T23:38:19.331Z,100033.91
2023-05-10T23:43:19.895Z,100029.59
2023-05-10T23:48:18.759Z,100029.38
2023-05-10T23:53:17.491Z,100024.59
2023-05-10T23:58:16.433Z,100025.06
